Mayfield, Pennsylvania
Current Conditions -  °F | °C
As of 12:06 PM on Wednesday 26 Nov 2014 (Local Time) from KAVP Reporting Station
Heavy Snow Heavy Snow  
Wind Chill: 27°   Ceiling: 500
Heat Index: 33°   Visibility: 0.25mi
Dew Point: 31°   Wind: 7mph
Humidity: 92%   Direction: 20°NNE
Pressure: 30.05"   Gusts: NA
Location:  41.535°N, 75.5334°W
Report Text: KAVP 261706Z 02006KT 1/4SM R04/P6000FT +SN FG VV005 01/M01 A3005 RMK AO2 P0001 T00061006
Loading
Personal Weather Stations






























Interactive Weather Map New forecast layout! Learn more

10-Day Weather Forecast

Advertisements
Track Severe Weather on mobile